createdAt,value
2019-01-18T00:04:45.455Z,6.2
2019-01-18T00:10:12.865Z,5.5
2019-01-18T00:15:36.483Z,5.4
2019-01-18T00:20:59.876Z,5.3
2019-01-18T00:26:22.653Z,5.6
2019-01-18T00:31:47.347Z,5.9
2019-01-18T00:37:10.137Z,6.2
2019-01-18T00:42:34.357Z,6.7
2019-01-18T00:47:57.261Z,6.8
2019-01-18T00:53:21.857Z,6.1
2019-01-18T00:58:46.203Z,6
2019-01-18T01:04:11.700Z,6.2
2019-01-18T01:09:37.380Z,6.8
2019-01-18T01:15:00.282Z,6.5
2019-01-18T01:20:25.843Z,6.4
2019-01-18T01:25:50.333Z,6.7
2019-01-18T01:31:14.096Z,8.3
2019-01-18T01:36:38.030Z,8.9
2019-01-18T01:42:05.191Z,9.4
2019-01-18T01:47:30.372Z,11.1
2019-01-18T01:52:53.830Z,10.6
2019-01-18T01:58:18.252Z,11.3
2019-01-18T02:03:42.897Z,11.7
2019-01-18T02:09:10.537Z,11.1
2019-01-18T02:14:34.103Z,11.3
2019-01-18T02:19:57.994Z,10.9
2019-01-18T02:25:21.714Z,10.8
2019-01-18T02:30:46.314Z,10.3
2019-01-18T02:36:09.698Z,8.6
2019-01-18T02:41:36.362Z,8.4
2019-01-18T02:47:00.827Z,6.6
2019-01-18T02:52:25.181Z,6.9
2019-01-18T02:57:48.298Z,7.1
2019-01-18T03:03:11.421Z,7.1
2019-01-18T03:08:35.069Z,6.6
2019-01-18T03:14:00.711Z,8.1
2019-01-18T03:19:24.303Z,8
2019-01-18T03:24:49.203Z,7.9
2019-01-18T03:30:18.423Z,8.4
2019-01-18T03:35:37.242Z,8.1
2019-01-18T03:41:02.340Z,8.9
2019-01-18T03:46:25.860Z,8.3
2019-01-18T03:51:49.893Z,6.9
2019-01-18T03:57:12.884Z,6.7
2019-01-18T04:02:36.328Z,7
2019-01-18T04:08:01.679Z,8.1
2019-01-18T04:13:25.776Z,9
2019-01-18T04:18:50.175Z,11.1
2019-01-18T04:24:13.693Z,14.1
2019-01-18T04:29:39.322Z,18
2019-01-18T04:35:02.176Z,23.799999
2019-01-18T04:40:25.202Z,21.5
2019-01-18T04:45:50.720Z,21
2019-01-18T04:51:17.681Z,19.299999
2019-01-18T04:56:45.674Z,31.200001
2019-01-18T05:02:12.020Z,29.5
2019-01-18T05:07:38.491Z,40.5
2019-01-18T05:13:03.696Z,35.5
2019-01-18T05:18:30.294Z,31.6
2019-01-18T05:23:53.888Z,37
2019-01-18T05:29:18.285Z,27.4
2019-01-18T05:34:41.644Z,32.200001
2019-01-18T05:40:04.682Z,33.5
2019-01-18T05:45:27.748Z,23.1
2019-01-18T05:50:50.823Z,29.9
2019-01-18T05:56:24.190Z,34.299999
2019-01-18T06:01:56.829Z,27.4
2019-01-18T06:07:19.876Z,22.799999
2019-01-18T06:12:42.945Z,18.5
2019-01-18T06:18:06.218Z,14.2
2019-01-18T06:23:29.220Z,15.5
2019-01-18T06:28:52.404Z,17.1
2019-01-18T06:34:15.533Z,16.700001
2019-01-18T06:39:38.504Z,18.6
2019-01-18T06:45:01.498Z,15.7
2019-01-18T06:50:24.267Z,19.299999
2019-01-18T06:55:47.033Z,28.700001
2019-01-18T07:01:09.931Z,26.200001
2019-01-18T07:06:32.894Z,18.299999
2019-01-18T07:11:55.715Z,33.799999
2019-01-18T07:17:19.009Z,18.700001
2019-01-18T07:22:52.512Z,15.4
2019-01-18T07:28:15.534Z,17.4
2019-01-18T07:33:38.222Z,19.299999
2019-01-18T07:39:02.481Z,19.799999
2019-01-18T07:44:25.905Z,16.4
2019-01-18T07:49:49.529Z,16.1
2019-01-18T07:55:12.397Z,15.8
2019-01-18T08:00:35.299Z,15.1
2019-01-18T08:05:59.089Z,14.2
2019-01-18T08:11:23.572Z,12.5
2019-01-18T08:16:46.487Z,15.4
2019-01-18T08:22:09.182Z,15
2019-01-18T08:27:33.267Z,13.6
2019-01-18T08:32:58.747Z,13.9
2019-01-18T08:38:21.876Z,15
2019-01-18T08:43:44.625Z,14.5
2019-01-18T08:49:08.166Z,13.3
2019-01-18T08:54:33.244Z,14.1
2019-01-18T08:59:56.571Z,15.2
2019-01-18T09:05:20.894Z,13.3
2019-01-18T09:10:43.985Z,13
2019-01-18T09:16:07.044Z,12.9
2019-01-18T09:21:30.116Z,12.9
2019-01-18T09:26:52.834Z,11.6
2019-01-18T09:32:17.362Z,13.1
2019-01-18T09:37:40.663Z,10.7
2019-01-18T09:43:03.875Z,10.3
2019-01-18T09:48:26.763Z,8.7
2019-01-18T09:53:51.252Z,8.6
2019-01-18T09:59:14.053Z,7.9
2019-01-18T10:04:36.825Z,7.9
2019-01-18T10:09:59.547Z,6.7
2019-01-18T10:15:22.209Z,7.2
2019-01-18T10:20:46.244Z,6.6
2019-01-18T10:26:10.299Z,6.5
2019-01-18T10:31:33.850Z,5.5
2019-01-18T10:36:56.534Z,5
2019-01-18T10:42:19.260Z,4.3
2019-01-18T10:47:43.024Z,3.9
2019-01-18T10:53:09.815Z,4.6
2019-01-18T10:58:32.585Z,3.7
2019-01-18T11:03:55.861Z,4.6
2019-01-18T11:09:18.595Z,4
2019-01-18T11:14:41.830Z,3.9
2019-01-18T11:20:05.205Z,3.5
2019-01-18T11:25:31.837Z,4.3
2019-01-18T11:30:53.553Z,3.4
2019-01-18T11:36:16.524Z,4.2
2019-01-18T11:41:39.840Z,4.3
2019-01-18T11:47:03.462Z,3.2
2019-01-18T11:52:26.235Z,2
2019-01-18T11:57:49.327Z,1.6
2019-01-18T12:03:12.315Z,2
2019-01-18T12:08:35.135Z,1.9
2019-01-18T12:13:57.787Z,1.9
2019-01-18T12:19:21.211Z,1.8
2019-01-18T12:24:43.922Z,1.9
2019-01-18T12:30:07.205Z,2.1
2019-01-18T12:35:30.987Z,2.1
2019-01-18T12:40:56.712Z,2.2
2019-01-18T12:46:20.853Z,1.7
2019-01-18T12:51:43.573Z,1.6
2019-01-18T12:57:06.366Z,1.7
2019-01-18T13:02:35.266Z,1.8
2019-01-18T13:07:53.786Z,1.9
2019-01-18T13:13:16.751Z,1.8
2019-01-18T13:18:39.487Z,2.7
2019-01-18T13:24:03.085Z,2.1
2019-01-18T13:29:25.759Z,2.1
2019-01-18T13:34:49.410Z,2.1
2019-01-18T13:40:12.834Z,2.2
2019-01-18T13:45:36.309Z,2.3
2019-01-18T13:50:59.079Z,2.2
2019-01-18T13:56:21.794Z,2.5
2019-01-18T14:01:45.358Z,2.2
2019-01-18T14:07:09.805Z,2.2
2019-01-18T14:12:33.216Z,2.2
2019-01-18T14:17:56.813Z,2.7
2019-01-18T14:23:19.598Z,2.4
2019-01-18T14:28:42.434Z,2.3
2019-01-18T14:34:05.183Z,2.2
2019-01-18T14:39:28.750Z,2.1
2019-01-18T14:44:51.763Z,2.1
2019-01-18T14:50:15.478Z,2.3
2019-01-18T14:55:38.432Z,2.4
2019-01-18T15:01:01.654Z,2.8
2019-01-18T15:06:25.592Z,2.7
2019-01-18T15:11:48.952Z,2.6
2019-01-18T15:17:14.187Z,2.4
2019-01-18T15:22:36.821Z,2.8
2019-01-18T15:28:00.946Z,3
2019-01-18T15:33:23.372Z,2.8
2019-01-18T15:38:46.240Z,3.2
2019-01-18T15:44:09.430Z,3.3
2019-01-18T15:49:32.825Z,3.7
2019-01-18T15:54:57.197Z,5.9
2019-01-18T16:00:19.942Z,6
2019-01-18T16:05:43.360Z,5.3
2019-01-18T16:11:05.999Z,4.8
2019-01-18T16:16:33.000Z,4.9
2019-01-18T16:21:56.030Z,4.8
2019-01-18T16:27:26.333Z,4.9
2019-01-18T16:32:49.033Z,5.5
2019-01-18T16:38:12.744Z,6.4
2019-01-18T16:43:37.072Z,6.1
2019-01-18T16:48:59.862Z,6
2019-01-18T16:54:22.637Z,6.3
2019-01-18T16:59:46.291Z,6.6
2019-01-18T17:05:09.175Z,6.7
2019-01-18T17:10:32.812Z,6.9
2019-01-18T17:15:55.483Z,7.6
2019-01-18T17:21:19.019Z,8.9
2019-01-18T17:26:42.489Z,8.3
2019-01-18T17:32:06.471Z,8.4
2019-01-18T17:37:29.817Z,8.5
2019-01-18T17:42:52.861Z,10
2019-01-18T17:48:14.835Z,9.6
2019-01-18T17:53:37.940Z,10.7
2019-01-18T17:59:01.485Z,10.4
2019-01-18T18:04:24.809Z,11.3
2019-01-18T18:09:47.649Z,11.4
2019-01-18T18:15:11.330Z,13.1
2019-01-18T18:20:35.878Z,13.8
2019-01-18T18:25:59.560Z,13.1
2019-01-18T18:31:25.223Z,11.5
2019-01-18T18:36:57.052Z,13
2019-01-18T18:42:29.275Z,11.8
2019-01-18T18:47:52.854Z,12.1
2019-01-18T18:53:17.170Z,13.1
2019-01-18T18:58:51.780Z,13
2019-01-18T19:04:16.779Z,12.4
2019-01-18T19:09:40.419Z,13.7
2019-01-18T19:15:04.950Z,13.5
2019-01-18T19:20:28.135Z,13.9
2019-01-18T19:25:51.549Z,13.2
2019-01-18T19:31:25.774Z,14.1
2019-01-18T19:36:48.612Z,13.6
2019-01-18T19:42:11.300Z,15.9
2019-01-18T19:47:36.292Z,15.3
2019-01-18T19:52:59.937Z,15
2019-01-18T19:58:22.670Z,17.9
2019-01-18T20:03:45.527Z,17.799999
2019-01-18T20:09:08.268Z,18.299999
2019-01-18T20:14:30.938Z,19.1
2019-01-18T20:19:53.690Z,20.299999
2019-01-18T20:25:16.378Z,21.700001
2019-01-18T20:30:39.370Z,20.700001
2019-01-18T20:36:02.187Z,21.4
2019-01-18T20:41:26.735Z,19.799999
2019-01-18T20:46:49.645Z,18.299999
2019-01-18T20:52:12.345Z,18
2019-01-18T20:57:35.269Z,19
2019-01-18T21:02:58.013Z,18.9
2019-01-18T21:08:22.642Z,18
2019-01-18T21:13:45.394Z,18.4
2019-01-18T21:19:09.066Z,18.799999
2019-01-18T21:24:31.926Z,18.4
2019-01-18T21:29:54.599Z,17.799999
2019-01-18T21:35:19.180Z,17.200001
2019-01-18T21:40:42.630Z,17.5
2019-01-18T21:46:07.007Z,16.4
2019-01-18T21:51:33.432Z,16.299999
2019-01-18T21:56:57.722Z,18.1
2019-01-18T22:02:22.755Z,17.700001
2019-01-18T22:07:46.177Z,16.799999
2019-01-18T22:13:09.726Z,16.799999
2019-01-18T22:18:31.892Z,16.1
2019-01-18T22:23:55.446Z,17.1
2019-01-18T22:29:20.246Z,17.4
2019-01-18T22:34:47.666Z,16.299999
2019-01-18T22:40:08.301Z,16.299999
2019-01-18T22:45:32.529Z,17.200001
2019-01-18T22:50:55.632Z,16.799999
2019-01-18T22:56:19.393Z,18.4
2019-01-18T23:01:42.923Z,16
2019-01-18T23:07:07.264Z,16.4
2019-01-18T23:12:31.266Z,16.299999
2019-01-18T23:17:55.026Z,16.700001
2019-01-18T23:23:18.694Z,15.9
2019-01-18T23:28:43.295Z,14.9
2019-01-18T23:34:08.553Z,15.8
2019-01-18T23:39:32.732Z,15.9
2019-01-18T23:44:56.761Z,19.299999
2019-01-18T23:50:28.447Z,14.4
2019-01-18T23:55:51.914Z,16.299999
